OAL903 LECH-LECH
Flight info
| Callsign | OAL903 |
|---|---|
| Flight time | N/A |
| Altitude | 8500 |
| Route | BENLLOC BENAFIGOS ELCERRITO TERUEL PUENTE GUADALAJARA P5 P4 P3 P2 N |
| Aircraft | SR22/L-VGDW/C |
Departure
| Time | 2026-04-22 18:35 |
|---|---|
| Airport | Castellón-Costa Azahar Airport (LECH) |
Arrival
| Time | N/A |
|---|---|
| Airport | Castellón-Costa Azahar Airport (LECH) |
| Time | Latitude | Longitude | Altitude | Speed | Heading |
|---|---|---|---|---|---|
| 2026-04-22 18:26 | 40.20636 | 0.06739 | 1085 ft | 0 kts | 104° |
| 2026-04-22 18:30 | 40.20637 | 0.06747 | 1113 ft | 5 kts | 63° |
| 2026-04-22 18:31 | 40.20688 | 0.06710 | 1111 ft | 11 kts | 328° |
| 2026-04-22 18:31 | 40.20702 | 0.06626 | 1108 ft | 12 kts | 237° |
| 2026-04-22 18:31 | 40.20652 | 0.06523 | 1108 ft | 14 kts | 234° |
| 2026-04-22 18:31 | 40.20674 | 0.06419 | 1106 ft | 11 kts | 329° |
| 2026-04-22 18:32 | 40.20694 | 0.06313 | 1104 ft | 17 kts | 236° |
| 2026-04-22 18:32 | 40.20640 | 0.06195 | 1100 ft | 16 kts | 253° |
| 2026-04-22 18:32 | 40.20693 | 0.06101 | 1099 ft | 6 kts | 333° |
| 2026-04-22 18:32 | 40.20742 | 0.06062 | 1098 ft | 12 kts | 334° |
| 2026-04-22 18:33 | 40.20802 | 0.06095 | 1100 ft | 0 kts | 56° |
| 2026-04-22 18:34 | 40.20818 | 0.06127 | 1101 ft | 26 kts | 56° |
| 2026-04-22 18:34 | 40.21041 | 0.06579 | 1115 ft | 84 kts | 57° |
| 2026-04-22 18:35 | 40.21377 | 0.07249 | 1370 ft | 87 kts | 57° |
| 2026-04-22 18:35 | 40.21735 | 0.07915 | 1659 ft | 94 kts | 51° |
| 2026-04-22 18:35 | 40.22062 | 0.08660 | 2030 ft | 97 kts | 69° |
| 2026-04-22 18:35 | 40.22381 | 0.09459 | 2384 ft | 102 kts | 60° |
| 2026-04-22 18:36 | 40.22990 | 0.09770 | 2743 ft | 105 kts | 330° |
| 2026-04-22 18:36 | 40.23444 | 0.09030 | 3032 ft | 110 kts | 307° |
| 2026-04-22 18:36 | 40.23688 | 0.08097 | 3345 ft | 113 kts | 258° |
| 2026-04-22 18:36 | 40.23327 | 0.07192 | 3645 ft | 116 kts | 229° |
| 2026-04-22 18:37 | 40.22748 | 0.06406 | 3951 ft | 123 kts | 223° |
| 2026-04-22 18:37 | 40.22143 | 0.05613 | 4243 ft | 125 kts | 223° |
| 2026-04-22 18:37 | 40.21518 | 0.04802 | 4519 ft | 129 kts | 223° |
| 2026-04-22 18:37 | 40.20827 | 0.03918 | 4538 ft | 145 kts | 224° |
| 2026-04-22 18:38 | 40.20107 | 0.02990 | 4540 ft | 145 kts | 224° |
| 2026-04-22 18:38 | 40.19438 | 0.01990 | 4529 ft | 149 kts | 242° |
| 2026-04-22 18:38 | 40.19393 | 0.00630 | 4530 ft | 155 kts | 278° |
| 2026-04-22 18:39 | 40.20365 | -0.01943 | 4532 ft | 161 kts | 296° |
| 2026-04-22 18:39 | 40.20931 | -0.03213 | 4531 ft | 163 kts | 296° |
| 2026-04-22 18:39 | 40.21503 | -0.04494 | 4541 ft | 163 kts | 296° |
| 2026-04-22 18:39 | 40.22068 | -0.05775 | 4531 ft | 162 kts | 296° |
| 2026-04-22 18:40 | 40.22633 | -0.07056 | 4534 ft | 163 kts | 296° |
| 2026-04-22 18:40 | 40.23195 | -0.08351 | 4524 ft | 163 kts | 296° |
| 2026-04-22 18:40 | 40.23753 | -0.09638 | 4553 ft | 161 kts | 296° |
| 2026-04-22 18:40 | 40.24285 | -0.10852 | 4720 ft | 152 kts | 296° |
| 2026-04-22 18:41 | 40.24802 | -0.12025 | 4871 ft | 147 kts | 295° |
| 2026-04-22 18:41 | 40.25324 | -0.13202 | 5045 ft | 151 kts | 296° |
| 2026-04-22 18:41 | 40.25843 | -0.14399 | 5211 ft | 150 kts | 292° |
| 2026-04-22 18:41 | 40.26272 | -0.15637 | 5378 ft | 150 kts | 290° |
| 2026-04-22 18:42 | 40.26694 | -0.16882 | 5550 ft | 148 kts | 289° |
| 2026-04-22 18:42 | 40.27106 | -0.18105 | 5709 ft | 144 kts | 289° |
| 2026-04-22 18:42 | 40.27514 | -0.19290 | 5883 ft | 143 kts | 291° |
| 2026-04-22 18:42 | 40.27883 | -0.20498 | 6057 ft | 143 kts | 277° |
| 2026-04-22 18:43 | 40.28122 | -0.21760 | 6237 ft | 143 kts | 283° |
| 2026-04-22 18:43 | 40.28413 | -0.23012 | 6402 ft | 143 kts | 283° |
| 2026-04-22 18:43 | 40.28709 | -0.24259 | 6529 ft | 147 kts | 283° |
| 2026-04-22 18:43 | 40.29015 | -0.25585 | 6533 ft | 155 kts | 283° |
| 2026-04-22 18:44 | 40.29321 | -0.26958 | 6536 ft | 159 kts | 283° |
| 2026-04-22 18:44 | 40.29619 | -0.28360 | 6532 ft | 160 kts | 283° |
| 2026-04-22 18:44 | 40.29917 | -0.29768 | 6540 ft | 163 kts | 283° |
| 2026-04-22 18:44 | 40.30226 | -0.31214 | 6536 ft | 166 kts | 283° |
| 2026-04-22 18:45 | 40.30549 | -0.32677 | 6538 ft | 168 kts | 283° |
| 2026-04-22 18:45 | 40.30880 | -0.34131 | 6533 ft | 169 kts | 284° |
| 2026-04-22 18:45 | 40.31209 | -0.35600 | 6533 ft | 166 kts | 284° |
| 2026-04-22 18:45 | 40.31516 | -0.37053 | 6534 ft | 165 kts | 283° |
| 2026-04-22 18:46 | 40.31825 | -0.38502 | 6534 ft | 166 kts | 283° |
| 2026-04-22 18:46 | 40.32149 | -0.39963 | 6536 ft | 168 kts | 283° |
| 2026-04-22 18:46 | 40.32475 | -0.41451 | 6528 ft | 170 kts | 284° |
| 2026-04-22 18:46 | 40.32786 | -0.42949 | 6535 ft | 170 kts | 282° |
| 2026-04-22 18:47 | 40.33093 | -0.44415 | 6522 ft | 169 kts | 282° |
| 2026-04-22 18:47 | 40.33411 | -0.45887 | 6522 ft | 167 kts | 283° |
| 2026-04-22 18:47 | 40.33734 | -0.47348 | 6523 ft | 167 kts | 283° |
| 2026-04-22 18:47 | 40.34054 | -0.48804 | 6649 ft | 163 kts | 282° |
| 2026-04-22 18:48 | 40.34363 | -0.50203 | 6900 ft | 157 kts | 282° |
| 2026-04-22 18:48 | 40.34667 | -0.51547 | 7161 ft | 152 kts | 283° |
| 2026-04-22 18:48 | 40.34962 | -0.52873 | 7407 ft | 150 kts | 282° |
| 2026-04-22 18:48 | 40.35252 | -0.54178 | 7678 ft | 150 kts | 283° |
| 2026-04-22 18:49 | 40.35543 | -0.55514 | 7944 ft | 154 kts | 282° |
| 2026-04-22 18:49 | 40.35850 | -0.56859 | 8196 ft | 152 kts | 282° |
| 2026-04-22 18:49 | 40.36150 | -0.58155 | 8457 ft | 146 kts | 282° |
| 2026-04-22 18:49 | 40.36456 | -0.59456 | 8526 ft | 152 kts | 284° |
| 2026-04-22 18:50 | 40.36770 | -0.60775 | 8526 ft | 153 kts | 283° |
| 2026-04-22 18:50 | 40.37076 | -0.62133 | 8526 ft | 157 kts | 283° |
| 2026-04-22 18:50 | 40.37396 | -0.63497 | 8526 ft | 159 kts | 283° |
| 2026-04-22 18:50 | 40.37719 | -0.64892 | 8528 ft | 163 kts | 283° |
| 2026-04-22 18:51 | 40.38048 | -0.66331 | 8517 ft | 164 kts | 283° |
| 2026-04-22 18:51 | 40.38351 | -0.67773 | 8532 ft | 165 kts | 280° |
| 2026-04-22 18:51 | 40.38527 | -0.69260 | 8520 ft | 165 kts | 267° |
| 2026-04-22 18:51 | 40.38563 | -0.70751 | 8503 ft | 167 kts | 284° |
| 2026-04-22 18:52 | 40.38889 | -0.72190 | 8511 ft | 163 kts | 277° |
| 2026-04-22 18:52 | 40.38982 | -0.73652 | 8513 ft | 160 kts | 264° |
| 2026-04-22 18:52 | 40.39040 | -0.75115 | 8512 ft | 162 kts | 273° |
| 2026-04-22 18:52 | 40.39171 | -0.76576 | 8512 ft | 161 kts | 274° |
| 2026-04-22 18:53 | 40.39297 | -0.78029 | 8514 ft | 160 kts | 273° |
| 2026-04-22 18:53 | 40.39429 | -0.79474 | 8512 ft | 159 kts | 273° |
| 2026-04-22 18:53 | 40.39563 | -0.80919 | 8526 ft | 162 kts | 274° |
| 2026-04-22 18:53 | 40.39704 | -0.82387 | 8527 ft | 165 kts | 274° |
| 2026-04-22 18:54 | 40.39850 | -0.83882 | 8532 ft | 165 kts | 274° |
| 2026-04-22 18:54 | 40.40000 | -0.85381 | 8532 ft | 166 kts | 274° |
| 2026-04-22 18:54 | 40.40143 | -0.86876 | 8532 ft | 165 kts | 274° |
| 2026-04-22 18:54 | 40.40285 | -0.88364 | 8533 ft | 164 kts | 274° |
| 2026-04-22 18:55 | 40.40428 | -0.89848 | 8533 ft | 163 kts | 274° |
| 2026-04-22 18:55 | 40.40568 | -0.91325 | 8531 ft | 163 kts | 275° |
| 2026-04-22 18:55 | 40.40715 | -0.92789 | 8542 ft | 162 kts | 275° |
| 2026-04-22 18:55 | 40.40873 | -0.94259 | 8542 ft | 163 kts | 274° |
| 2026-04-22 18:56 | 40.41015 | -0.95745 | 8547 ft | 165 kts | 274° |
| 2026-04-22 18:56 | 40.41157 | -0.97244 | 8544 ft | 166 kts | 274° |
| 2026-04-22 18:56 | 40.41292 | -0.98738 | 8547 ft | 164 kts | 274° |
| 2026-04-22 18:56 | 40.41429 | -1.00199 | 8550 ft | 163 kts | 274° |
| 2026-04-22 18:57 | 40.41567 | -1.01673 | 8547 ft | 162 kts | 274° |
| 2026-04-22 18:57 | 40.41707 | -1.03145 | 8549 ft | 163 kts | 274° |
| 2026-04-22 18:57 | 40.41852 | -1.04625 | 8553 ft | 164 kts | 274° |
| 2026-04-22 18:57 | 40.41988 | -1.06113 | 8551 ft | 163 kts | 273° |
| 2026-04-22 18:58 | 40.42128 | -1.07591 | 8552 ft | 163 kts | 274° |
| 2026-04-22 18:58 | 40.42270 | -1.09061 | 8554 ft | 161 kts | 274° |
| 2026-04-22 18:58 | 40.42411 | -1.10522 | 8554 ft | 162 kts | 274° |
| 2026-04-22 18:58 | 40.42549 | -1.11984 | 8554 ft | 161 kts | 274° |
| 2026-04-22 18:59 | 40.42687 | -1.13442 | 8555 ft | 161 kts | 273° |
| 2026-04-22 18:59 | 40.42824 | -1.14902 | 8552 ft | 161 kts | 274° |
| 2026-04-22 18:59 | 40.42963 | -1.16360 | 8553 ft | 161 kts | 273° |
| 2026-04-22 18:59 | 40.43103 | -1.17816 | 8554 ft | 161 kts | 274° |
| 2026-04-22 19:00 | 40.43240 | -1.19281 | 8555 ft | 162 kts | 273° |
| 2026-04-22 19:00 | 40.43379 | -1.20755 | 8558 ft | 163 kts | 273° |
| 2026-04-22 19:00 | 40.43518 | -1.22229 | 8557 ft | 162 kts | 273° |
| 2026-04-22 19:00 | 40.43656 | -1.23696 | 8554 ft | 162 kts | 273° |
| 2026-04-22 19:01 | 40.43793 | -1.25156 | 8554 ft | 161 kts | 273° |
| 2026-04-22 19:01 | 40.43927 | -1.26587 | 8552 ft | 160 kts | 273° |
| 2026-04-22 19:01 | 40.44063 | -1.28029 | 8550 ft | 159 kts | 273° |
| 2026-04-22 19:01 | 40.44278 | -1.29458 | 8547 ft | 159 kts | 277° |
| 2026-04-22 19:02 | 40.44581 | -1.30855 | 8544 ft | 159 kts | 279° |
| 2026-04-22 19:02 | 40.44578 | -1.32286 | 8547 ft | 157 kts | 265° |
| 2026-04-22 19:02 | 40.44630 | -1.33725 | 8546 ft | 158 kts | 271° |
| 2026-04-22 19:02 | 40.44747 | -1.35164 | 8553 ft | 159 kts | 272° |
| 2026-04-22 19:03 | 40.44876 | -1.36602 | 8557 ft | 159 kts | 272° |
| 2026-04-22 19:03 | 40.45006 | -1.38047 | 8554 ft | 159 kts | 272° |
| 2026-04-22 19:03 | 40.45137 | -1.39487 | 8556 ft | 159 kts | 272° |
| 2026-04-22 19:03 | 40.45268 | -1.40926 | 8557 ft | 159 kts | 272° |
| 2026-04-22 19:04 | 40.45403 | -1.42368 | 8559 ft | 160 kts | 274° |
| 2026-04-22 19:04 | 40.45737 | -1.43775 | 8551 ft | 162 kts | 282° |
| 2026-04-22 19:04 | 40.45890 | -1.45209 | 8553 ft | 158 kts | 261° |
| 2026-04-22 19:04 | 40.45825 | -1.46648 | 8557 ft | 159 kts | 266° |
| 2026-04-22 19:05 | 40.45898 | -1.48101 | 8556 ft | 160 kts | 272° |
| 2026-04-22 19:05 | 40.46034 | -1.49543 | 8554 ft | 159 kts | 273° |
| 2026-04-22 19:05 | 40.46171 | -1.50985 | 8559 ft | 159 kts | 273° |
| 2026-04-22 19:05 | 40.46311 | -1.52441 | 8561 ft | 162 kts | 272° |
| 2026-04-22 19:06 | 40.46447 | -1.53904 | 8547 ft | 160 kts | 271° |
| 2026-04-22 19:06 | 40.46582 | -1.55353 | 8558 ft | 160 kts | 272° |
| 2026-04-22 19:06 | 40.46716 | -1.56819 | 8552 ft | 163 kts | 273° |
| 2026-04-22 19:07 | 40.46984 | -1.59746 | 8555 ft | 162 kts | 271° |
| 2026-04-22 19:07 | 40.47116 | -1.61206 | 8558 ft | 162 kts | 273° |
| 2026-04-22 19:07 | 40.47254 | -1.62679 | 8575 ft | 163 kts | 273° |
| 2026-04-22 19:07 | 40.47392 | -1.64182 | 8552 ft | 165 kts | 272° |
| 2026-04-22 19:08 | 40.47524 | -1.65672 | 8553 ft | 164 kts | 272° |
| 2026-04-22 19:08 | 40.47659 | -1.67156 | 8552 ft | 162 kts | 271° |
| 2026-04-22 19:08 | 40.47790 | -1.68620 | 8555 ft | 161 kts | 271° |
| 2026-04-22 19:08 | 40.47927 | -1.70090 | 8559 ft | 164 kts | 273° |
| 2026-04-22 19:09 | 40.48015 | -1.71071 | 8555 ft | 162 kts | 272° |
| 2026-04-22 19:09 | 40.48141 | -1.72541 | 8552 ft | 162 kts | 272° |
| 2026-04-22 19:09 | 40.48272 | -1.74015 | 8556 ft | 162 kts | 272° |
| 2026-04-22 19:09 | 40.48449 | -1.75948 | 8552 ft | 160 kts | 272° |
| 2026-04-22 19:10 | 40.48579 | -1.77400 | 8556 ft | 160 kts | 271° |
| 2026-04-22 19:10 | 40.48665 | -1.78391 | 8544 ft | 162 kts | 271° |
| 2026-04-22 19:10 | 40.48795 | -1.79843 | 8556 ft | 160 kts | 271° |
| 2026-04-22 19:10 | 40.48924 | -1.81293 | 8561 ft | 161 kts | 272° |
| 2026-04-22 19:11 | 40.49051 | -1.82759 | 8559 ft | 162 kts | 271° |
| 2026-04-22 19:11 | 40.49183 | -1.84207 | 8556 ft | 161 kts | 272° |
| 2026-04-22 19:11 | 40.49313 | -1.85664 | 8557 ft | 161 kts | 271° |
| 2026-04-22 19:11 | 40.49440 | -1.87120 | 8560 ft | 160 kts | 271° |
| 2026-04-22 19:12 | 40.49573 | -1.88588 | 8554 ft | 162 kts | 271° |
| 2026-04-22 19:12 | 40.49699 | -1.90051 | 8557 ft | 162 kts | 271° |
| 2026-04-22 19:12 | 40.49828 | -1.91522 | 8558 ft | 162 kts | 271° |
| 2026-04-22 19:12 | 40.49957 | -1.92996 | 8556 ft | 162 kts | 271° |
| 2026-04-22 19:13 | 40.50086 | -1.94466 | 8556 ft | 162 kts | 271° |
| 2026-04-22 19:13 | 40.50214 | -1.95930 | 8562 ft | 162 kts | 271° |
| 2026-04-22 19:13 | 40.50341 | -1.97405 | 8559 ft | 162 kts | 271° |
| 2026-04-22 19:13 | 40.50474 | -1.98881 | 8559 ft | 162 kts | 272° |
| 2026-04-22 19:14 | 40.50605 | -2.00357 | 8559 ft | 163 kts | 271° |
| 2026-04-22 19:14 | 40.50732 | -2.01836 | 8553 ft | 164 kts | 271° |
| 2026-04-22 19:14 | 40.50860 | -2.03322 | 8554 ft | 164 kts | 271° |
| 2026-04-22 19:14 | 40.50995 | -2.04790 | 8562 ft | 165 kts | 271° |
| 2026-04-22 19:15 | 40.51079 | -2.05805 | 8546 ft | 164 kts | 271° |
| 2026-04-22 19:15 | 40.51245 | -2.07759 | 8546 ft | 161 kts | 271° |
| 2026-04-22 19:15 | 40.51373 | -2.09218 | 8546 ft | 161 kts | 271° |
| 2026-04-22 19:15 | 40.51500 | -2.10682 | 8543 ft | 160 kts | 271° |
| 2026-04-22 19:16 | 40.51622 | -2.12133 | 8538 ft | 160 kts | 271° |
| 2026-04-22 19:16 | 40.51747 | -2.13592 | 8539 ft | 161 kts | 270° |
| 2026-04-22 19:16 | 40.51876 | -2.15067 | 8543 ft | 161 kts | 271° |
| 2026-04-22 19:16 | 40.52003 | -2.16540 | 8553 ft | 164 kts | 270° |
| 2026-04-22 19:17 | 40.52134 | -2.18029 | 8543 ft | 164 kts | 271° |
| 2026-04-22 19:17 | 40.52256 | -2.19513 | 8541 ft | 164 kts | 271° |
| 2026-04-22 19:17 | 40.52386 | -2.21005 | 8545 ft | 164 kts | 271° |
| 2026-04-22 19:17 | 40.52512 | -2.22487 | 8540 ft | 162 kts | 271° |
| 2026-04-22 19:18 | 40.52634 | -2.23963 | 8538 ft | 162 kts | 271° |
| 2026-04-22 19:18 | 40.52759 | -2.25417 | 8534 ft | 162 kts | 271° |
| 2026-04-22 19:18 | 40.52887 | -2.26908 | 8539 ft | 167 kts | 272° |
| 2026-04-22 19:18 | 40.53016 | -2.28420 | 8543 ft | 166 kts | 271° |
| 2026-04-22 19:19 | 40.53143 | -2.29923 | 8536 ft | 165 kts | 271° |
| 2026-04-22 19:19 | 40.53268 | -2.31416 | 8534 ft | 164 kts | 271° |
| 2026-04-22 19:19 | 40.53395 | -2.32904 | 8535 ft | 164 kts | 271° |
| 2026-04-22 19:19 | 40.53521 | -2.34387 | 8530 ft | 163 kts | 271° |
| 2026-04-22 19:20 | 40.53645 | -2.35869 | 8525 ft | 163 kts | 271° |
| 2026-04-22 19:20 | 40.53774 | -2.37352 | 8391 ft | 162 kts | 272° |
| 2026-04-22 19:20 | 40.53905 | -2.38801 | 8235 ft | 157 kts | 271° |
| 2026-04-22 19:20 | 40.54022 | -2.40216 | 8078 ft | 154 kts | 271° |
| 2026-04-22 19:21 | 40.54137 | -2.41607 | 7923 ft | 152 kts | 271° |
| 2026-04-22 19:21 | 40.54249 | -2.42981 | 7768 ft | 150 kts | 271° |
| 2026-04-22 19:21 | 40.54361 | -2.44335 | 7614 ft | 147 kts | 271° |
| 2026-04-22 19:21 | 40.54471 | -2.45672 | 7467 ft | 147 kts | 271° |
| 2026-04-22 19:22 | 40.54581 | -2.47000 | 7321 ft | 148 kts | 272° |
| 2026-04-22 19:22 | 40.54692 | -2.48346 | 7175 ft | 148 kts | 272° |
| 2026-04-22 19:22 | 40.54805 | -2.49697 | 7036 ft | 148 kts | 272° |
| 2026-04-22 19:22 | 40.54914 | -2.51031 | 6893 ft | 149 kts | 272° |
| 2026-04-22 19:23 | 40.55028 | -2.52423 | 6638 ft | 156 kts | 272° |
| 2026-04-22 19:23 | 40.55150 | -2.53860 | 6388 ft | 160 kts | 272° |
| 2026-04-22 19:23 | 40.55274 | -2.55325 | 6122 ft | 162 kts | 273° |
| 2026-04-22 19:23 | 40.55394 | -2.56804 | 5858 ft | 163 kts | 273° |
| 2026-04-22 19:24 | 40.55514 | -2.58289 | 5587 ft | 163 kts | 273° |
| 2026-04-22 19:24 | 40.55636 | -2.59774 | 5322 ft | 163 kts | 273° |
| 2026-04-22 19:24 | 40.55757 | -2.61253 | 5060 ft | 163 kts | 274° |
| 2026-04-22 19:24 | 40.55880 | -2.62747 | 4797 ft | 165 kts | 274° |
| 2026-04-22 19:25 | 40.56004 | -2.64243 | 4527 ft | 164 kts | 274° |
| 2026-04-22 19:25 | 40.56125 | -2.65736 | 4257 ft | 164 kts | 274° |
| 2026-04-22 19:25 | 40.56245 | -2.67209 | 3986 ft | 164 kts | 275° |
| 2026-04-22 19:25 | 40.56372 | -2.68693 | 3714 ft | 163 kts | 276° |
| 2026-04-22 19:26 | 40.56492 | -2.70182 | 3541 ft | 156 kts | 275° |
| 2026-04-22 19:26 | 40.56591 | -2.71473 | 3716 ft | 133 kts | 275° |
| 2026-04-22 19:26 | 40.56673 | -2.72618 | 3880 ft | 126 kts | 272° |
| 2026-04-22 19:26 | 40.56754 | -2.73824 | 4068 ft | 137 kts | 275° |
| 2026-04-22 19:27 | 40.56964 | -2.75072 | 4272 ft | 142 kts | 279° |
| 2026-04-22 19:27 | 40.57179 | -2.76359 | 4494 ft | 146 kts | 280° |
| 2026-04-22 19:27 | 40.57406 | -2.77725 | 4534 ft | 159 kts | 280° |
| 2026-04-22 19:27 | 40.57655 | -2.79197 | 4533 ft | 169 kts | 280° |
| 2026-04-22 19:28 | 40.57911 | -2.80736 | 4539 ft | 175 kts | 280° |
| 2026-04-22 19:28 | 40.58172 | -2.82321 | 4529 ft | 179 kts | 280° |
| 2026-04-22 19:28 | 40.58437 | -2.83919 | 4533 ft | 177 kts | 281° |
| 2026-04-22 19:28 | 40.58696 | -2.85461 | 4528 ft | 170 kts | 281° |
| 2026-04-22 19:29 | 40.58941 | -2.86974 | 4521 ft | 168 kts | 280° |
| 2026-04-22 19:29 | 40.59184 | -2.88469 | 4518 ft | 167 kts | 281° |
| 2026-04-22 19:29 | 40.59424 | -2.89950 | 4520 ft | 165 kts | 281° |
| 2026-04-22 19:29 | 40.59665 | -2.91428 | 4518 ft | 165 kts | 280° |
| 2026-04-22 19:30 | 40.59822 | -2.92396 | 4524 ft | 162 kts | 281° |
| 2026-04-22 19:30 | 40.60141 | -2.94346 | 4524 ft | 164 kts | 280° |
| 2026-04-22 19:30 | 40.60382 | -2.95815 | 4526 ft | 166 kts | 280° |
| 2026-04-22 19:30 | 40.60625 | -2.97302 | 4526 ft | 166 kts | 280° |
| 2026-04-22 19:31 | 40.60862 | -2.98787 | 4523 ft | 166 kts | 280° |
| 2026-04-22 19:31 | 40.61103 | -3.00275 | 4526 ft | 166 kts | 281° |
| 2026-04-22 19:31 | 40.61347 | -3.01766 | 4526 ft | 167 kts | 281° |
| 2026-04-22 19:31 | 40.61588 | -3.03252 | 4522 ft | 165 kts | 280° |
| 2026-04-22 19:32 | 40.61827 | -3.04731 | 4521 ft | 165 kts | 280° |
| 2026-04-22 19:32 | 40.62062 | -3.06183 | 4521 ft | 165 kts | 280° |
| 2026-04-22 19:32 | 40.62300 | -3.07652 | 4520 ft | 164 kts | 280° |
| 2026-04-22 19:32 | 40.62538 | -3.09124 | 4517 ft | 164 kts | 280° |
| 2026-04-22 19:33 | 40.62775 | -3.10588 | 4517 ft | 164 kts | 281° |
| 2026-04-22 19:33 | 40.63017 | -3.12055 | 4517 ft | 164 kts | 280° |
| 2026-04-22 19:33 | 40.63248 | -3.13530 | 4517 ft | 164 kts | 280° |
| 2026-04-22 19:33 | 40.63485 | -3.15001 | 4517 ft | 164 kts | 280° |
| 2026-04-22 19:34 | 40.63723 | -3.16485 | 4433 ft | 169 kts | 279° |
| 2026-04-22 19:34 | 40.63864 | -3.18047 | 4266 ft | 174 kts | 274° |
| 2026-04-22 19:34 | 40.63988 | -3.19628 | 4104 ft | 177 kts | 275° |
| 2026-04-22 19:34 | 40.64120 | -3.21252 | 3935 ft | 179 kts | 275° |
| 2026-04-22 19:35 | 40.64251 | -3.22883 | 3767 ft | 179 kts | 275° |
| 2026-04-22 19:35 | 40.64384 | -3.24518 | 3600 ft | 179 kts | 275° |
| 2026-04-22 19:35 | 40.64470 | -3.25598 | 3519 ft | 178 kts | 275° |
| 2026-04-22 19:35 | 40.64639 | -3.27711 | 3506 ft | 170 kts | 275° |
| 2026-04-22 19:36 | 40.64766 | -3.29240 | 3504 ft | 167 kts | 275° |
| 2026-04-22 19:36 | 40.64885 | -3.30749 | 3499 ft | 165 kts | 275° |
| 2026-04-22 19:36 | 40.64999 | -3.32243 | 3500 ft | 163 kts | 275° |
| 2026-04-22 19:36 | 40.65115 | -3.33729 | 3496 ft | 163 kts | 275° |
| 2026-04-22 19:37 | 40.65231 | -3.35203 | 3496 ft | 161 kts | 275° |
| 2026-04-22 19:37 | 40.65347 | -3.36666 | 3497 ft | 160 kts | 275° |
| 2026-04-22 19:37 | 40.65460 | -3.38124 | 3496 ft | 160 kts | 275° |
| 2026-04-22 19:37 | 40.65574 | -3.39581 | 3502 ft | 159 kts | 275° |
| 2026-04-22 19:38 | 40.65687 | -3.41029 | 3503 ft | 159 kts | 274° |
| 2026-04-22 19:38 | 40.65808 | -3.42459 | 3499 ft | 159 kts | 275° |
| 2026-04-22 19:38 | 40.65924 | -3.43915 | 3501 ft | 160 kts | 274° |
| 2026-04-22 19:38 | 40.66034 | -3.45379 | 3499 ft | 161 kts | 274° |
| 2026-04-22 19:39 | 40.66147 | -3.46848 | 3501 ft | 161 kts | 274° |
| 2026-04-22 19:39 | 40.66260 | -3.48314 | 3506 ft | 161 kts | 275° |
| 2026-04-22 19:39 | 40.66370 | -3.49783 | 3502 ft | 161 kts | 275° |
| 2026-04-22 19:39 | 40.66485 | -3.51254 | 3502 ft | 162 kts | 275° |
| 2026-04-22 19:40 | 40.66604 | -3.52723 | 3505 ft | 161 kts | 276° |
| 2026-04-22 19:40 | 40.66734 | -3.54183 | 3520 ft | 160 kts | 275° |
| 2026-04-22 19:40 | 40.66844 | -3.55641 | 3519 ft | 160 kts | 274° |
| 2026-04-22 19:40 | 40.66951 | -3.57102 | 3527 ft | 160 kts | 274° |
| 2026-04-22 19:41 | 40.67058 | -3.58563 | 3521 ft | 161 kts | 275° |
| 2026-04-22 19:41 | 40.67168 | -3.60031 | 3521 ft | 161 kts | 274° |
| 2026-04-22 19:41 | 40.67107 | -3.61491 | 3524 ft | 160 kts | 253° |
| 2026-04-22 19:41 | 40.66649 | -3.62827 | 3519 ft | 160 kts | 243° |
| 2026-04-22 19:42 | 40.66177 | -3.64150 | 3521 ft | 159 kts | 245° |
| 2026-04-22 19:42 | 40.65712 | -3.65477 | 3520 ft | 159 kts | 244° |
| 2026-04-22 19:42 | 40.65252 | -3.66778 | 3523 ft | 159 kts | 244° |
| 2026-04-22 19:42 | 40.64784 | -3.68098 | 3524 ft | 159 kts | 244° |
| 2026-04-22 19:43 | 40.63838 | -3.70746 | 3524 ft | 160 kts | 244° |
| 2026-04-22 19:43 | 40.63353 | -3.72062 | 3525 ft | 160 kts | 244° |
| 2026-04-22 19:43 | 40.62763 | -3.73290 | 3522 ft | 159 kts | 234° |
| 2026-04-22 19:44 | 40.62121 | -3.74474 | 3521 ft | 159 kts | 235° |
| 2026-04-22 19:44 | 40.61489 | -3.75662 | 3523 ft | 158 kts | 234° |
| 2026-04-22 19:44 | 40.60857 | -3.76849 | 3524 ft | 158 kts | 234° |
| 2026-04-22 19:44 | 40.60221 | -3.78040 | 3525 ft | 159 kts | 235° |
| 2026-04-22 19:45 | 40.59583 | -3.79232 | 3527 ft | 159 kts | 234° |
| 2026-04-22 19:45 | 40.58944 | -3.80424 | 3525 ft | 160 kts | 234° |
| 2026-04-22 19:45 | 40.58310 | -3.81605 | 3525 ft | 160 kts | 234° |
| 2026-04-22 19:45 | 40.57671 | -3.82794 | 3527 ft | 159 kts | 235° |
| 2026-04-22 19:46 | 40.57032 | -3.83985 | 3528 ft | 160 kts | 234° |
| 2026-04-22 19:46 | 40.56392 | -3.85176 | 3525 ft | 159 kts | 234° |
| 2026-04-22 19:46 | 40.55752 | -3.86365 | 3525 ft | 159 kts | 235° |
| 2026-04-22 19:46 | 40.55109 | -3.87557 | 3523 ft | 160 kts | 234° |
| 2026-04-22 19:47 | 40.54290 | -3.88522 | 3523 ft | 160 kts | 208° |
| 2026-04-22 19:47 | 40.53231 | -3.88970 | 3530 ft | 160 kts | 194° |
| 2026-04-22 19:47 | 40.52514 | -3.89202 | 3525 ft | 160 kts | 195° |
| 2026-04-22 19:47 | 40.51073 | -3.89705 | 3531 ft | 160 kts | 195° |
| 2026-04-22 19:48 | 40.49982 | -3.90010 | 3533 ft | 162 kts | 183° |
| 2026-04-22 19:48 | 40.48870 | -3.89789 | 3531 ft | 162 kts | 170° |
| 2026-04-22 19:48 | 40.47757 | -3.89543 | 3532 ft | 162 kts | 172° |
| 2026-04-22 19:48 | 40.46639 | -3.89300 | 3533 ft | 162 kts | 171° |
| 2026-04-22 19:49 | 40.45527 | -3.89047 | 3532 ft | 162 kts | 171° |
| 2026-04-22 19:49 | 40.44417 | -3.88797 | 3535 ft | 161 kts | 171° |
| 2026-04-22 19:49 | 40.43314 | -3.88550 | 3530 ft | 161 kts | 171° |
| 2026-04-22 19:49 | 40.42208 | -3.88301 | 3531 ft | 161 kts | 171° |
| 2026-04-22 19:50 | 40.41114 | -3.87973 | 3529 ft | 162 kts | 157° |
| 2026-04-22 19:50 | 40.40229 | -3.87075 | 3529 ft | 163 kts | 130° |
| 2026-04-22 19:50 | 40.39683 | -3.85777 | 3531 ft | 163 kts | 115° |
| 2026-04-22 19:50 | 40.39194 | -3.84422 | 3506 ft | 164 kts | 117° |
| 2026-04-22 19:51 | 40.38671 | -3.83097 | 3510 ft | 163 kts | 117° |
| 2026-04-22 19:51 | 40.38175 | -3.81741 | 3419 ft | 168 kts | 115° |
| 2026-04-22 19:51 | 40.37643 | -3.80370 | 3275 ft | 173 kts | 122° |
| 2026-04-22 19:51 | 40.36875 | -3.79203 | 3177 ft | 159 kts | 139° |
| 2026-04-22 19:52 | 40.36048 | -3.78274 | 3119 ft | 152 kts | 134° |
| 2026-04-22 19:52 | 40.35434 | -3.77170 | 3021 ft | 152 kts | 118° |
| 2026-04-22 19:52 | 40.35065 | -3.75883 | 2961 ft | 150 kts | 101° |
| 2026-04-22 19:52 | 40.35082 | -3.74541 | 2866 ft | 150 kts | 81° |
| 2026-04-22 19:53 | 40.35284 | -3.73233 | 3019 ft | 132 kts | 63° |
| 2026-04-22 19:53 | 40.35877 | -3.72416 | 3106 ft | 129 kts | 25° |
| 2026-04-22 19:53 | 40.36460 | -3.72240 | 3060 ft | 133 kts | 354° |
| 2026-04-22 19:53 | 40.37288 | -3.73263 | 2874 ft | 136 kts | 270° |
| 2026-04-22 19:54 | 40.36989 | -3.74430 | 2669 ft | 132 kts | 242° |
| 2026-04-22 19:54 | 40.36900 | -3.75520 | 2553 ft | 113 kts | 278° |
| 2026-04-22 19:54 | 40.36947 | -3.76398 | 2459 ft | 90 kts | 274° |
| 2026-04-22 19:54 | 40.37000 | -3.77193 | 2355 ft | 84 kts | 275° |
| 2026-04-22 19:55 | 40.37040 | -3.77909 | 2267 ft | 69 kts | 274° |
| 2026-04-22 19:55 | 40.37061 | -3.78324 | 2264 ft | 25 kts | 273° |
| 2026-04-22 19:55 | 40.37071 | -3.78541 | 2263 ft | 23 kts | 272° |
| 2026-04-22 19:55 | 40.37039 | -3.78714 | 2264 ft | 13 kts | 244° |
| 2026-04-22 19:56 | 40.36993 | -3.78734 | 2267 ft | 10 kts | 104° |
| 2026-04-22 19:56 | 40.36987 | -3.78634 | 2267 ft | 14 kts | 97° |
| 2026-04-22 19:56 | 40.36981 | -3.78541 | 2267 ft | 14 kts | 91° |
| 2026-04-22 19:56 | 40.36975 | -3.78408 | 2267 ft | 13 kts | 96° |
| 2026-04-22 19:57 | 40.36971 | -3.78320 | 2267 ft | 9 kts | 92° |
| 2026-04-22 19:57 | 40.36962 | -3.78227 | 2267 ft | 9 kts | 129° |
| 2026-04-22 19:57 | 40.36936 | -3.78267 | 2267 ft | 8 kts | 320° |
| 2026-04-22 19:57 | 40.36948 | -3.78275 | 2267 ft | 0 kts | 2° |